sensor_id;sensor_type;location;lat;lon;timestamp;pressure;altitude;pressure_sealevel;temperature;humidity
10732;BME280;5417;42.686;23.244;2023-04-24T00:02:04;94027.88;;;13.89;54.30
10732;BME280;5417;42.686;23.244;2023-04-24T00:08:00;94025.78;;;13.93;53.31
10732;BME280;5417;42.686;23.244;2023-04-24T00:10:46;94019.56;;;13.94;53.65
10732;BME280;5417;42.686;23.244;2023-04-24T00:16:41;94021.69;;;13.90;54.32
10732;BME280;5417;42.686;23.244;2023-04-24T00:19:08;94011.84;;;13.84;54.95
10732;BME280;5417;42.686;23.244;2023-04-24T00:21:37;94031.94;;;13.84;55.55
10732;BME280;5417;42.686;23.244;2023-04-24T00:24:04;94030.34;;;13.91;55.20
10732;BME280;5417;42.686;23.244;2023-04-24T00:26:47;94029.47;;;13.82;55.87
10732;BME280;5417;42.686;23.244;2023-04-24T00:29:14;94025.94;;;13.92;55.83
10732;BME280;5417;42.686;23.244;2023-04-24T00:32:35;94026.97;;;13.99;55.49
10732;BME280;5417;42.686;23.244;2023-04-24T00:35:46;94014.91;;;13.80;55.58
10732;BME280;5417;42.686;23.244;2023-04-24T00:48:40;94020.66;;;13.57;56.75
10732;BME280;5417;42.686;23.244;2023-04-24T00:51:07;94020.25;;;13.52;57.09
10732;BME280;5417;42.686;23.244;2023-04-24T00:53:57;94003.41;;;13.29;56.44
10732;BME280;5417;42.686;23.244;2023-04-24T01:03:17;94000.88;;;13.37;58.99
10732;BME280;5417;42.686;23.244;2023-04-24T01:05:46;94000.72;;;13.39;61.22
10732;BME280;5417;42.686;23.244;2023-04-24T01:08:42;93997.56;;;13.35;60.01
10732;BME280;5417;42.686;23.244;2023-04-24T01:11:08;93993.47;;;13.33;62.60
10732;BME280;5417;42.686;23.244;2023-04-24T01:13:35;93973.84;;;13.29;62.69
10732;BME280;5417;42.686;23.244;2023-04-24T01:28:54;93976.06;;;12.70;61.35
10732;BME280;5417;42.686;23.244;2023-04-24T01:31:22;93973.75;;;12.67;61.67
10732;BME280;5417;42.686;23.244;2023-04-24T01:33:50;93976.13;;;12.78;61.76
10732;BME280;5417;42.686;23.244;2023-04-24T01:36:38;93965.38;;;12.81;61.76
10732;BME280;5417;42.686;23.244;2023-04-24T01:42:56;93984.94;;;12.95;58.32
10732;BME280;5417;42.686;23.244;2023-04-24T01:45:25;93983.75;;;12.89;58.15
10732;BME280;5417;42.686;23.244;2023-04-24T01:47:52;93971.13;;;12.85;58.14
10732;BME280;5417;42.686;23.244;2023-04-24T01:57:26;93975.41;;;13.04;59.77
10732;BME280;5417;42.686;23.244;2023-04-24T02:16:58;93979.84;;;12.58;62.82
10732;BME280;5417;42.686;23.244;2023-04-24T02:19:26;93964.66;;;12.44;62.83
10732;BME280;5417;42.686;23.244;2023-04-24T02:21:53;93967.41;;;12.42;62.79
10732;BME280;5417;42.686;23.244;2023-04-24T02:24:19;93979.75;;;12.50;63.13
10732;BME280;5417;42.686;23.244;2023-04-24T02:26:46;93972.06;;;12.48;63.95
10732;BME280;5417;42.686;23.244;2023-04-24T02:29:13;93963.75;;;12.35;63.85
10732;BME280;5417;42.686;23.244;2023-04-24T02:32:06;93962.94;;;12.35;63.50
10732;BME280;5417;42.686;23.244;2023-04-24T02:35:31;93951.81;;;12.32;64.21
10732;BME280;5417;42.686;23.244;2023-04-24T02:37:52;93955.16;;;12.25;64.62
10732;BME280;5417;42.686;23.244;2023-04-24T02:40:43;93954.06;;;12.27;64.22
10732;BME280;5417;42.686;23.244;2023-04-24T02:43:11;93952.69;;;12.23;64.99
10732;BME280;5417;42.686;23.244;2023-04-24T02:52:15;93940.91;;;12.19;64.47
10732;BME280;5417;42.686;23.244;2023-04-24T02:56:09;93949.72;;;12.18;64.95
10732;BME280;5417;42.686;23.244;2023-04-24T02:58:07;93944.09;;;12.13;65.38
10732;BME280;5417;42.686;23.244;2023-04-24T03:00:36;93943.91;;;12.24;64.98
10732;BME280;5417;42.686;23.244;2023-04-24T03:03:02;93951.50;;;12.18;63.64
10732;BME280;5417;42.686;23.244;2023-04-24T03:06:23;93954.41;;;12.15;64.03
10732;BME280;5417;42.686;23.244;2023-04-24T03:08:45;93943.81;;;12.16;61.55
10732;BME280;5417;42.686;23.244;2023-04-24T03:11:37;93957.72;;;12.07;62.71
10732;BME280;5417;42.686;23.244;2023-04-24T03:14:59;93967.91;;;12.00;63.13
10732;BME280;5417;42.686;23.244;2023-04-24T03:17:18;93971.75;;;11.96;63.57
10732;BME280;5417;42.686;23.244;2023-04-24T03:19:45;93954.44;;;12.05;62.50
10732;BME280;5417;42.686;23.244;2023-04-24T03:22:23;93947.75;;;11.93;62.52
10732;BME280;5417;42.686;23.244;2023-04-24T03:24:51;93961.31;;;11.96;62.75
10732;BME280;5417;42.686;23.244;2023-04-24T03:27:20;93950.06;;;12.06;62.05
10732;BME280;5417;42.686;23.244;2023-04-24T03:30:46;93969.28;;;12.05;62.50
10732;BME280;5417;42.686;23.244;2023-04-24T03:33:22;93960.03;;;12.10;61.85
10732;BME280;5417;42.686;23.244;2023-04-24T03:39:19;93953.34;;;12.08;61.78
10732;BME280;5417;42.686;23.244;2023-04-24T03:41:47;93957.72;;;12.07;61.91
10732;BME280;5417;42.686;23.244;2023-04-24T03:44:53;93958.56;;;12.08;62.42
10732;BME280;5417;42.686;23.244;2023-04-24T03:47:19;93958.41;;;12.09;63.50
10732;BME280;5417;42.686;23.244;2023-04-24T03:49:46;93962.50;;;12.12;63.62
10732;BME280;5417;42.686;23.244;2023-04-24T03:52:15;93958.78;;;12.14;64.02
10732;BME280;5417;42.686;23.244;2023-04-24T03:55:01;93962.22;;;12.15;63.65
10732;BME280;5417;42.686;23.244;2023-04-24T03:57:40;93954.09;;;12.18;63.94
10732;BME280;5417;42.686;23.244;2023-04-24T04:00:40;93955.34;;;12.41;62.87
10732;BME280;5417;42.686;23.244;2023-04-24T04:03:06;93965.91;;;12.40;61.46
10732;BME280;5417;42.686;23.244;2023-04-24T04:05:33;93959.28;;;12.45;61.30
10732;BME280;5417;42.686;23.244;2023-04-24T04:09:27;93948.22;;;12.61;59.41
10732;BME280;5417;42.686;23.244;2023-04-24T04:11:28;93952.03;;;12.49;58.94
10732;BME280;5417;42.686;23.244;2023-04-24T04:14:14;93961.34;;;12.51;60.25
10732;BME280;5417;42.686;23.244;2023-04-24T04:17:08;93937.78;;;12.61;58.19
10732;BME280;5417;42.686;23.244;2023-04-24T04:19:58;93947.09;;;12.81;60.06
10732;BME280;5417;42.686;23.244;2023-04-24T04:22:26;93957.13;;;13.04;58.10
10732;BME280;5417;42.686;23.244;2023-04-24T04:59:46;93983.19;;;13.31;58.12
10732;BME280;5417;42.686;23.244;2023-04-24T05:02:13;93991.78;;;13.23;58.31
10732;BME280;5417;42.686;23.244;2023-04-24T05:04:40;93993.63;;;13.31;57.32
10732;BME280;5417;42.686;23.244;2023-04-24T05:07:07;93995.66;;;13.19;58.26
10732;BME280;5417;42.686;23.244;2023-04-24T05:09:34;93995.66;;;13.19;56.60
10732;BME280;5417;42.686;23.244;2023-04-24T05:12:00;93989.75;;;13.17;56.65
10732;BME280;5417;42.686;23.244;2023-04-24T05:14:49;93984.06;;;13.04;56.72
10732;BME280;5417;42.686;23.244;2023-04-24T05:17:16;93988.31;;;13.05;56.95
10732;BME280;5417;42.686;23.244;2023-04-24T05:20:07;93990.63;;;13.08;56.58
10732;BME280;5417;42.686;23.244;2023-04-24T05:23:29;93983.72;;;13.17;56.61
10732;BME280;5417;42.686;23.244;2023-04-24T05:26:14;93987.72;;;13.29;56.89
10732;BME280;5417;42.686;23.244;2023-04-24T05:29:08;93982.16;;;13.50;55.38
10732;BME280;5417;42.686;23.244;2023-04-24T05:31:37;93989.19;;;13.49;55.32
10732;BME280;5417;42.686;23.244;2023-04-24T05:34:29;93986.66;;;13.57;55.48
10732;BME280;5417;42.686;23.244;2023-04-24T05:37:50;93985.84;;;13.57;53.90
10732;BME280;5417;42.686;23.244;2023-04-24T05:40:10;93990.88;;;13.76;53.96
10732;BME280;5417;42.686;23.244;2023-04-24T05:42:37;93987.22;;;14.29;53.71
10732;BME280;5417;42.686;23.244;2023-04-24T05:45:28;93987.56;;;14.68;52.07
10732;BME280;5417;42.686;23.244;2023-04-24T05:47:57;93987.50;;;15.10;51.11
10732;BME280;5417;42.686;23.244;2023-04-24T05:56:53;93959.97;;;16.82;46.44
10732;BME280;5417;42.686;23.244;2023-04-24T05:59:20;93980.69;;;17.31;45.19
10732;BME280;5417;42.686;23.244;2023-04-24T06:01:47;93973.16;;;17.65;44.73
10732;BME280;5417;42.686;23.244;2023-04-24T06:04:15;93978.97;;;17.98;43.65
10732;BME280;5417;42.686;23.244;2023-04-24T06:06:42;93976.75;;;18.25;42.36
10732;BME280;5417;42.686;23.244;2023-04-24T06:09:09;93976.81;;;18.46;41.99
10732;BME280;5417;42.686;23.244;2023-04-24T06:20:59;93970.75;;;19.33;41.15
10732;BME280;5417;42.686;23.244;2023-04-24T06:23:26;93964.28;;;19.35;40.69
10732;BME280;5417;42.686;23.244;2023-04-24T06:25:53;93973.72;;;19.44;40.84
10732;BME280;5417;42.686;23.244;2023-04-24T06:28:20;93980.69;;;19.52;41.41
10732;BME280;5417;42.686;23.244;2023-04-24T06:34:26;93985.16;;;18.20;43.15
10732;BME280;5417;42.686;23.244;2023-04-24T06:36:54;93986.59;;;17.79;44.09
10732;BME280;5417;42.686;23.244;2023-04-24T06:39:21;93978.53;;;17.34;45.63
10732;BME280;5417;42.686;23.244;2023-04-24T06:41:48;93984.03;;;17.17;46.42
10732;BME280;5417;42.686;23.244;2023-04-24T06:44:15;93978.22;;;17.29;46.91
10732;BME280;5417;42.686;23.244;2023-04-24T06:46:42;93985.03;;;17.70;46.52
10732;BME280;5417;42.686;23.244;2023-04-24T06:49:08;93979.63;;;18.15;47.46
10732;BME280;5417;42.686;23.244;2023-04-24T06:51:35;93973.03;;;18.34;45.38
10732;BME280;5417;42.686;23.244;2023-04-24T06:54:04;93974.38;;;18.45;43.54
10732;BME280;5417;42.686;23.244;2023-04-24T06:56:31;93974.66;;;18.65;43.16
10732;BME280;5417;42.686;23.244;2023-04-24T06:58:59;93975.28;;;18.67;43.84
10732;BME280;5417;42.686;23.244;2023-04-24T07:01:26;93966.13;;;18.99;43.01
10732;BME280;5417;42.686;23.244;2023-04-24T07:03:53;93950.44;;;19.12;41.72
10732;BME280;5417;42.686;23.244;2023-04-24T07:06:19;93963.28;;;19.36;41.27
10732;BME280;5417;42.686;23.244;2023-04-24T07:08:48;93961.38;;;19.51;40.52
10732;BME280;5417;42.686;23.244;2023-04-24T07:11:16;93961.47;;;19.58;40.02
10732;BME280;5417;42.686;23.244;2023-04-24T07:13:43;93963.59;;;19.69;40.58
10732;BME280;5417;42.686;23.244;2023-04-24T07:16:10;93969.16;;;20.02;40.05
10732;BME280;5417;42.686;23.244;2023-04-24T07:18:38;93949.09;;;20.14;39.24
10732;BME280;5417;42.686;23.244;2023-04-24T07:21:05;93958.50;;;20.24;38.53
10732;BME280;5417;42.686;23.244;2023-04-24T07:23:32;93952.75;;;20.41;39.38
10732;BME280;5417;42.686;23.244;2023-04-24T07:25:59;93948.97;;;20.57;39.55
10732;BME280;5417;42.686;23.244;2023-04-24T07:28:47;93956.88;;;20.51;38.96
10732;BME280;5417;42.686;23.244;2023-04-24T07:31:37;93949.78;;;20.58;39.36
10732;BME280;5417;42.686;23.244;2023-04-24T07:34:06;93948.16;;;20.57;39.33
10732;BME280;5417;42.686;23.244;2023-04-24T07:36:33;93935.28;;;20.47;39.76
10732;BME280;5417;42.686;23.244;2023-04-24T07:39:00;93934.75;;;20.65;38.84
10732;BME280;5417;42.686;23.244;2023-04-24T07:41:26;93941.38;;;20.89;38.16
10732;BME280;5417;42.686;23.244;2023-04-24T07:43:55;93944.63;;;20.84;37.83
10732;BME280;5417;42.686;23.244;2023-04-24T07:46:22;93938.03;;;20.73;37.83
10732;BME280;5417;42.686;23.244;2023-04-24T07:48:50;93948.22;;;20.76;38.71
10732;BME280;5417;42.686;23.244;2023-04-24T07:51:17;93931.63;;;20.96;37.62
10732;BME280;5417;42.686;23.244;2023-04-24T07:53:44;93934.44;;;20.88;37.70
10732;BME280;5417;42.686;23.244;2023-04-24T07:57:04;93936.00;;;20.75;37.51
10732;BME280;5417;42.686;23.244;2023-04-24T07:59:27;93929.97;;;20.88;38.37
10732;BME280;5417;42.686;23.244;2023-04-24T08:01:53;93919.63;;;21.06;39.75
10732;BME280;5417;42.686;23.244;2023-04-24T08:04:21;93923.94;;;21.21;39.43
10732;BME280;5417;42.686;23.244;2023-04-24T08:06:48;93920.94;;;21.30;37.74
10732;BME280;5417;42.686;23.244;2023-04-24T08:09:15;93920.56;;;21.47;37.43
10732;BME280;5417;42.686;23.244;2023-04-24T08:11:42;93909.72;;;21.28;37.07
10732;BME280;5417;42.686;23.244;2023-04-24T08:14:08;93916.06;;;21.34;37.54
10732;BME280;5417;42.686;23.244;2023-04-24T08:16:39;93914.25;;;21.54;37.39
10732;BME280;5417;42.686;23.244;2023-04-24T08:19:06;93917.50;;;21.56;36.66
10732;BME280;5417;42.686;23.244;2023-04-24T08:21:33;93910.38;;;21.63;37.25
10732;BME280;5417;42.686;23.244;2023-04-24T08:24:00;93913.44;;;21.60;37.01
10732;BME280;5417;42.686;23.244;2023-04-24T08:26:30;93913.81;;;21.70;36.93
10732;BME280;5417;42.686;23.244;2023-04-24T08:28:57;93905.28;;;21.68;37.08
10732;BME280;5417;42.686;23.244;2023-04-24T08:31:24;93903.25;;;21.51;36.75
10732;BME280;5417;42.686;23.244;2023-04-24T08:33:53;93896.94;;;21.52;36.92
10732;BME280;5417;42.686;23.244;2023-04-24T08:36:20;93891.22;;;21.61;37.73
10732;BME280;5417;42.686;23.244;2023-04-24T08:38:47;93889.56;;;21.80;37.38
10732;BME280;5417;42.686;23.244;2023-04-24T08:41:14;93885.09;;;21.74;36.98
10732;BME280;5417;42.686;23.244;2023-04-24T08:43:42;93881.22;;;21.77;37.36
10732;BME280;5417;42.686;23.244;2023-04-24T08:46:10;93879.19;;;21.72;36.36
10732;BME280;5417;42.686;23.244;2023-04-24T08:48:39;93881.84;;;21.52;37.02
10732;BME280;5417;42.686;23.244;2023-04-24T08:51:08;93879.38;;;21.24;37.54
10732;BME280;5417;42.686;23.244;2023-04-24T08:53:36;93872.91;;;21.33;37.64
10732;BME280;5417;42.686;23.244;2023-04-24T08:56:03;93862.91;;;21.49;38.13
10732;BME280;5417;42.686;23.244;2023-04-24T08:58:31;93867.56;;;21.73;37.22
10732;BME280;5417;42.686;23.244;2023-04-24T09:00:58;93860.22;;;21.82;37.29
10732;BME280;5417;42.686;23.244;2023-04-24T09:03:27;93858.59;;;21.94;37.38
10732;BME280;5417;42.686;23.244;2023-04-24T09:05:55;93852.28;;;21.75;37.51
10732;BME280;5417;42.686;23.244;2023-04-24T09:08:25;93857.19;;;21.65;37.05
10732;BME280;5417;42.686;23.244;2023-04-24T09:10:52;93844.56;;;21.47;36.70
10732;BME280;5417;42.686;23.244;2023-04-24T09:13:19;93832.97;;;21.35;38.00
10732;BME280;5417;42.686;23.244;2023-04-24T09:15:47;93846.81;;;21.44;38.70
10732;BME280;5417;42.686;23.244;2023-04-24T09:18:14;93837.84;;;21.51;37.92
10732;BME280;5417;42.686;23.244;2023-04-24T09:21:00;93839.09;;;21.35;38.24
10732;BME280;5417;42.686;23.244;2023-04-24T09:23:29;93841.13;;;21.33;37.91
10732;BME280;5417;42.686;23.244;2023-04-24T09:25:57;93829.09;;;21.37;37.52
10732;BME280;5417;42.686;23.244;2023-04-24T09:28:26;93819.72;;;21.41;37.83
10732;BME280;5417;42.686;23.244;2023-04-24T09:31:08;93822.97;;;21.24;37.32
10732;BME280;5417;42.686;23.244;2023-04-24T09:33:36;93822.34;;;21.22;38.46
10732;BME280;5417;42.686;23.244;2023-04-24T09:36:03;93830.06;;;21.17;38.53
10732;BME280;5417;42.686;23.244;2023-04-24T09:38:34;93830.31;;;21.28;38.47
10732;BME280;5417;42.686;23.244;2023-04-24T09:41:02;93832.50;;;21.11;38.09
10732;BME280;5417;42.686;23.244;2023-04-24T10:10:47;93784.50;;;21.34;40.08
10732;BME280;5417;42.686;23.244;2023-04-24T10:13:14;93768.41;;;21.36;37.88
10732;BME280;5417;42.686;23.244;2023-04-24T10:15:42;93770.41;;;21.60;37.54
10732;BME280;5417;42.686;23.244;2023-04-24T10:18:10;93766.47;;;21.83;36.61
10732;BME280;5417;42.686;23.244;2023-04-24T10:21:00;93761.78;;;21.91;36.03
10732;BME280;5417;42.686;23.244;2023-04-24T10:23:28;93760.31;;;22.02;35.11
10732;BME280;5417;42.686;23.244;2023-04-24T10:25:58;93752.56;;;22.07;34.63
10732;BME280;5417;42.686;23.244;2023-04-24T10:28:27;93761.94;;;22.10;35.82
10732;BME280;5417;42.686;23.244;2023-04-24T10:30:56;93762.56;;;22.05;35.34
10732;BME280;5417;42.686;23.244;2023-04-24T10:33:24;93748.06;;;22.01;35.41
10732;BME280;5417;42.686;23.244;2023-04-24T10:38:46;93751.59;;;21.88;36.65
10732;BME280;5417;42.686;23.244;2023-04-24T10:41:38;93748.44;;;21.47;36.22
10732;BME280;5417;42.686;23.244;2023-04-24T10:44:05;93748.25;;;21.08;36.00
10732;BME280;5417;42.686;23.244;2023-04-24T10:47:27;93737.25;;;21.11;36.65
10732;BME280;5417;42.686;23.244;2023-04-24T10:49:50;93745.63;;;21.35;37.46
10732;BME280;5417;42.686;23.244;2023-04-24T10:52:17;93725.19;;;21.55;35.46
10732;BME280;5417;42.686;23.244;2023-04-24T10:54:45;93731.03;;;21.77;35.75
10732;BME280;5417;42.686;23.244;2023-04-24T11:00:26;93738.38;;;21.75;35.83
10732;BME280;5417;42.686;23.244;2023-04-24T11:02:53;93735.31;;;21.71;36.47
10732;BME280;5417;42.686;23.244;2023-04-24T11:05:21;93745.09;;;21.71;36.85
10732;BME280;5417;42.686;23.244;2023-04-24T11:08:10;93744.53;;;21.62;35.90
10732;BME280;5417;42.686;23.244;2023-04-24T11:34:47;93778.56;;;19.15;50.29
10732;BME280;5417;42.686;23.244;2023-04-24T11:37:14;93768.16;;;19.28;49.55
10732;BME280;5417;42.686;23.244;2023-04-24T11:39:41;93757.63;;;19.35;48.17
10732;BME280;5417;42.686;23.244;2023-04-24T11:42:09;93765.63;;;19.48;48.37
10732;BME280;5417;42.686;23.244;2023-04-24T11:44:36;93756.75;;;19.56;48.12
10732;BME280;5417;42.686;23.244;2023-04-24T11:47:04;93749.72;;;19.69;49.12
10732;BME280;5417;42.686;23.244;2023-04-24T11:49:32;93744.91;;;19.79;49.42
10732;BME280;5417;42.686;23.244;2023-04-24T11:52:01;93739.47;;;19.88;49.44
10732;BME280;5417;42.686;23.244;2023-04-24T11:54:28;93741.31;;;20.00;49.51
10732;BME280;5417;42.686;23.244;2023-04-24T11:56:55;93733.78;;;19.97;48.17
10732;BME280;5417;42.686;23.244;2023-04-24T11:59:22;93740.94;;;20.03;48.43
10732;BME280;5417;42.686;23.244;2023-04-24T12:01:49;93729.75;;;20.08;49.15
10732;BME280;5417;42.686;23.244;2023-04-24T12:04:17;93735.06;;;20.14;49.07
10732;BME280;5417;42.686;23.244;2023-04-24T12:07:18;93722.47;;;20.16;48.05
10732;BME280;5417;42.686;23.244;2023-04-24T12:10:11;93725.94;;;20.24;45.11
10732;BME280;5417;42.686;23.244;2023-04-24T12:12:38;93727.75;;;20.23;44.62
10732;BME280;5417;42.686;23.244;2023-04-24T12:15:07;93722.06;;;20.26;44.91
10732;BME280;5417;42.686;23.244;2023-04-24T12:17:35;93708.88;;;20.26;45.19
10732;BME280;5417;42.686;23.244;2023-04-24T12:21:01;93710.31;;;20.35;45.44
10732;BME280;5417;42.686;23.244;2023-04-24T12:23:33;93703.25;;;20.49;45.50
10732;BME280;5417;42.686;23.244;2023-04-24T12:26:00;93688.81;;;20.52;44.87
10732;BME280;5417;42.686;23.244;2023-04-24T12:28:35;93696.97;;;20.63;43.56
10732;BME280;5417;42.686;23.244;2023-04-24T12:31:02;93678.22;;;20.78;44.47
10732;BME280;5417;42.686;23.244;2023-04-24T12:33:32;93674.19;;;20.82;43.21
10732;BME280;5417;42.686;23.244;2023-04-24T12:36:54;93668.69;;;20.84;42.74
10732;BME280;5417;42.686;23.244;2023-04-24T12:39:16;93659.34;;;20.81;42.16
10732;BME280;5417;42.686;23.244;2023-04-24T12:41:55;93659.13;;;20.83;42.08
10732;BME280;5417;42.686;23.244;2023-04-24T12:44:30;93669.09;;;20.87;41.92
10732;BME280;5417;42.686;23.244;2023-04-24T13:13:25;93597.38;;;21.35;40.74
10732;BME280;5417;42.686;23.244;2023-04-24T13:22:31;93593.47;;;21.37;40.44
10732;BME280;5417;42.686;23.244;2023-04-24T13:24:58;93587.97;;;21.39;39.97
10732;BME280;5417;42.686;23.244;2023-04-24T13:27:52;93574.09;;;21.44;40.34
10732;BME280;5417;42.686;23.244;2023-04-24T13:30:20;93589.97;;;21.50;39.34
10732;BME280;5417;42.686;23.244;2023-04-24T13:32:47;93579.91;;;21.65;39.20
10732;BME280;5417;42.686;23.244;2023-04-24T13:35:14;93581.91;;;21.70;39.53
10732;BME280;5417;42.686;23.244;2023-04-24T13:37:41;93571.16;;;21.58;37.88
10732;BME280;5417;42.686;23.244;2023-04-24T13:40:09;93561.41;;;21.59;37.54
10732;BME280;5417;42.686;23.244;2023-04-24T13:45:48;93562.06;;;21.48;38.53
10732;BME280;5417;42.686;23.244;2023-04-24T13:48:15;93556.00;;;21.40;38.42
10732;BME280;5417;42.686;23.244;2023-04-24T13:50:42;93548.66;;;21.42;38.46
10732;BME280;5417;42.686;23.244;2023-04-24T13:53:09;93550.06;;;21.45;38.14
10732;BME280;5417;42.686;23.244;2023-04-24T13:55:36;93541.94;;;21.40;38.09
10732;BME280;5417;42.686;23.244;2023-04-24T13:58:04;93535.41;;;21.42;38.14
10732;BME280;5417;42.686;23.244;2023-04-24T14:00:32;93539.00;;;21.55;37.84
10732;BME280;5417;42.686;23.244;2023-04-24T14:03:00;93531.53;;;21.45;37.50
10732;BME280;5417;42.686;23.244;2023-04-24T14:05:27;93532.16;;;21.40;37.30
10732;BME280;5417;42.686;23.244;2023-04-24T14:07:54;93528.66;;;21.47;37.26
10732;BME280;5417;42.686;23.244;2023-04-24T14:10:21;93522.31;;;21.54;36.36
10732;BME280;5417;42.686;23.244;2023-04-24T14:12:48;93523.25;;;21.28;36.71
10732;BME280;5417;42.686;23.244;2023-04-24T14:19:46;93505.34;;;21.24;37.53
10732;BME280;5417;42.686;23.244;2023-04-24T14:22:13;93510.25;;;21.14;36.99
10732;BME280;5417;42.686;23.244;2023-04-24T14:24:40;93511.28;;;21.13;37.41
10732;BME280;5417;42.686;23.244;2023-04-24T14:27:07;93512.69;;;21.15;37.45
10732;BME280;5417;42.686;23.244;2023-04-24T14:30:12;93503.09;;;21.21;36.31
10732;BME280;5417;42.686;23.244;2023-04-24T14:32:39;93487.88;;;21.09;36.27
10732;BME280;5417;42.686;23.244;2023-04-24T14:35:08;93506.41;;;21.09;36.45
10732;BME280;5417;42.686;23.244;2023-04-24T14:37:37;93505.59;;;21.09;36.81
10732;BME280;5417;42.686;23.244;2023-04-24T14:40:08;93492.94;;;21.18;37.34
10732;BME280;5417;42.686;23.244;2023-04-24T14:42:35;93499.25;;;21.17;37.19
10732;BME280;5417;42.686;23.244;2023-04-24T14:45:02;93503.34;;;21.13;36.81
10732;BME280;5417;42.686;23.244;2023-04-24T14:47:29;93503.41;;;20.99;36.58
10732;BME280;5417;42.686;23.244;2023-04-24T15:24:35;93508.78;;;19.41;44.65
10732;BME280;5417;42.686;23.244;2023-04-24T15:27:02;93511.59;;;19.26;45.04
10732;BME280;5417;42.686;23.244;2023-04-24T15:29:29;93505.50;;;19.26;45.38
10732;BME280;5417;42.686;23.244;2023-04-24T15:31:56;93505.72;;;19.31;46.07
10732;BME280;5417;42.686;23.244;2023-04-24T15:34:23;93498.66;;;18.90;47.31
10732;BME280;5417;42.686;23.244;2023-04-24T15:36:50;93489.53;;;18.86;47.21
10732;BME280;5417;42.686;23.244;2023-04-24T15:39:16;93494.59;;;18.87;47.07
10732;BME280;5417;42.686;23.244;2023-04-24T15:41:45;93483.81;;;18.76;46.73
10732;BME280;5417;42.686;23.244;2023-04-24T15:44:13;93507.75;;;18.74;47.00
10732;BME280;5417;42.686;23.244;2023-04-24T15:47:05;93513.81;;;18.75;47.61
10732;BME280;5417;42.686;23.244;2023-04-24T15:50:04;93511.03;;;18.83;47.86
10732;BME280;5417;42.686;23.244;2023-04-24T15:59:35;93537.63;;;17.76;52.92
10732;BME280;5417;42.686;23.244;2023-04-24T16:02:23;93563.09;;;17.69;53.66
10732;BME280;5417;42.686;23.244;2023-04-24T16:04:50;93555.63;;;17.37;57.21
10732;BME280;5417;42.686;23.244;2023-04-24T16:07:17;93558.66;;;16.68;62.28
10732;BME280;5417;42.686;23.244;2023-04-24T16:10:09;93577.16;;;16.22;66.79
10732;BME280;5417;42.686;23.244;2023-04-24T16:13:33;93588.81;;;15.59;70.31
10732;BME280;5417;42.686;23.244;2023-04-24T16:15:54;93594.28;;;15.19;75.00
10732;BME280;5417;42.686;23.244;2023-04-24T16:18:45;93607.44;;;15.02;75.11
10732;BME280;5417;42.686;23.244;2023-04-24T16:41:18;93624.84;;;15.34;74.48
10732;BME280;5417;42.686;23.244;2023-04-24T16:44:13;93645.53;;;15.60;74.38
10732;BME280;5417;42.686;23.244;2023-04-24T16:46:42;93643.44;;;15.78;74.66
10732;BME280;5417;42.686;23.244;2023-04-24T16:49:55;93644.97;;;15.96;74.07
10732;BME280;5417;42.686;23.244;2023-04-24T16:52:22;93641.09;;;16.06;72.01
10732;BME280;5417;42.686;23.244;2023-04-24T16:54:49;93627.75;;;16.16;72.68
10732;BME280;5417;42.686;23.244;2023-04-24T16:57:20;93628.25;;;16.34;69.68
10732;BME280;5417;42.686;23.244;2023-04-24T17:03:13;93640.03;;;16.38;69.28
10732;BME280;5417;42.686;23.244;2023-04-24T17:15:33;93633.41;;;16.42;66.97
10732;BME280;5417;42.686;23.244;2023-04-24T17:37:11;93659.34;;;16.60;70.16
10732;BME280;5417;42.686;23.244;2023-04-24T17:39:38;93658.53;;;16.60;70.68
10732;BME280;5417;42.686;23.244;2023-04-24T17:47:51;93677.91;;;16.59;70.10
10732;BME280;5417;42.686;23.244;2023-04-24T17:50:22;93674.47;;;16.58;70.37
10732;BME280;5417;42.686;23.244;2023-04-24T17:52:50;93685.34;;;16.55;70.17
10732;BME280;5417;42.686;23.244;2023-04-24T17:55:17;93703.53;;;16.57;69.75
10732;BME280;5417;42.686;23.244;2023-04-24T17:57:44;93718.31;;;16.58;70.17
10732;BME280;5417;42.686;23.244;2023-04-24T18:00:12;93709.63;;;16.57;71.14
10732;BME280;5417;42.686;23.244;2023-04-24T18:03:03;93716.41;;;16.52;70.35
10732;BME280;5417;42.686;23.244;2023-04-24T18:09:13;93720.88;;;16.28;70.11
10732;BME280;5417;42.686;23.244;2023-04-24T18:11:43;93721.75;;;16.21;68.52
10732;BME280;5417;42.686;23.244;2023-04-24T18:14:10;93717.03;;;16.16;68.26
10732;BME280;5417;42.686;23.244;2023-04-24T18:16:37;93708.81;;;16.11;68.99
10732;BME280;5417;42.686;23.244;2023-04-24T18:19:04;93686.53;;;16.07;67.82
10732;BME280;5417;42.686;23.244;2023-04-24T18:21:31;93664.63;;;15.77;68.53
10732;BME280;5417;42.686;23.244;2023-04-24T18:23:58;93640.44;;;15.59;69.39
10732;BME280;5417;42.686;23.244;2023-04-24T18:26:27;93645.50;;;15.68;70.19
10732;BME280;5417;42.686;23.244;2023-04-24T18:31:03;93644.84;;;15.66;70.11
10732;BME280;5417;42.686;23.244;2023-04-24T18:36:49;93676.13;;;15.37;71.63
10732;BME280;5417;42.686;23.244;2023-04-24T18:39:16;93688.94;;;15.32;71.70
10732;BME280;5417;42.686;23.244;2023-04-24T18:41:44;93702.22;;;15.30;72.62
10732;BME280;5417;42.686;23.244;2023-04-24T18:44:37;93720.56;;;15.30;72.38
10732;BME280;5417;42.686;23.244;2023-04-24T18:47:48;93731.72;;;15.24;72.96
10732;BME280;5417;42.686;23.244;2023-04-24T18:50:01;93735.03;;;15.18;71.75
10732;BME280;5417;42.686;23.244;2023-04-24T18:56:08;93702.63;;;15.11;70.20
10732;BME280;5417;42.686;23.244;2023-04-24T18:58:36;93698.66;;;15.07;70.80
10732;BME280;5417;42.686;23.244;2023-04-24T19:01:29;93706.88;;;15.12;69.03
10732;BME280;5417;42.686;23.244;2023-04-24T19:03:57;93708.50;;;15.05;69.45
10732;BME280;5417;42.686;23.244;2023-04-24T19:06:26;93699.50;;;14.99;69.48
10732;BME280;5417;42.686;23.244;2023-04-24T19:08:56;93706.69;;;15.13;69.93
10732;BME280;5417;42.686;23.244;2023-04-24T19:11:23;93696.88;;;15.07;67.21
10732;BME280;5417;42.686;23.244;2023-04-24T19:13:51;93711.97;;;14.97;66.41